createdAt,value
2019-01-29T00:00:20.220Z,3.70
2019-01-29T00:02:48.212Z,3.60
2019-01-29T00:05:16.184Z,3.60
2019-01-29T00:07:44.135Z,3.70
2019-01-29T00:10:12.279Z,3.70
2019-01-29T00:12:40.193Z,3.70
2019-01-29T00:15:08.283Z,3.70
2019-01-29T00:17:36.260Z,3.70
2019-01-29T00:20:06.797Z,3.80
2019-01-29T00:22:34.788Z,3.70
2019-01-29T00:25:02.864Z,3.70
2019-01-29T00:27:30.744Z,3.60
2019-01-29T00:29:58.723Z,3.60
2019-01-29T00:32:26.890Z,3.60
2019-01-29T00:34:54.789Z,3.50
2019-01-29T00:37:22.758Z,3.40
2019-01-29T00:39:50.695Z,3.40
2019-01-29T00:42:18.584Z,3.50
2019-01-29T00:44:46.483Z,3.50
2019-01-29T00:47:14.392Z,3.50
2019-01-29T00:49:42.271Z,3.60
2019-01-29T00:52:10.293Z,3.50
2019-01-29T00:54:38.190Z,3.40
2019-01-29T00:57:06.105Z,3.30
2019-01-29T00:59:33.982Z,3.40
2019-01-29T01:02:01.915Z,3.40
2019-01-29T01:04:30.013Z,3.40
2019-01-29T01:06:57.959Z,3.40
2019-01-29T01:09:25.868Z,3.40
2019-01-29T01:11:53.777Z,3.40
2019-01-29T01:14:21.834Z,3.40
2019-01-29T01:16:49.712Z,3.30
2019-01-29T01:19:17.616Z,3.30
2019-01-29T01:21:45.538Z,3.20
2019-01-29T01:24:13.425Z,3.20
2019-01-29T01:26:41.463Z,3.10
2019-01-29T01:29:09.410Z,3.00
2019-01-29T01:31:37.295Z,3.10
2019-01-29T01:34:05.178Z,3.00
2019-01-29T01:36:33.060Z,2.90
2019-01-29T01:39:00.950Z,2.80
2019-01-29T01:41:28.845Z,2.80
2019-01-29T01:43:56.872Z,2.80
2019-01-29T01:46:24.791Z,2.70
2019-01-29T01:48:52.670Z,2.70
2019-01-29T01:51:20.559Z,2.50
2019-01-29T01:53:48.508Z,2.60
2019-01-29T01:56:16.437Z,2.60
2019-01-29T01:58:44.325Z,2.60
2019-01-29T02:01:12.227Z,2.70
2019-01-29T02:03:40.106Z,2.80
2019-01-29T02:06:08.035Z,2.70
2019-01-29T02:08:35.931Z,2.60
2019-01-29T02:11:03.924Z,2.70
2019-01-29T02:13:31.883Z,2.60
2019-01-29T02:15:59.789Z,2.70
2019-01-29T02:18:27.756Z,2.70
2019-01-29T02:20:55.711Z,2.70
2019-01-29T02:23:23.685Z,2.70
2019-01-29T02:25:51.564Z,2.70
2019-01-29T02:28:19.524Z,2.70
2019-01-29T02:30:47.482Z,2.70
2019-01-29T02:33:15.765Z,2.80
2019-01-29T02:35:43.639Z,2.80
2019-01-29T02:38:11.631Z,2.70
2019-01-29T02:40:39.635Z,2.70
2019-01-29T02:43:07.497Z,2.70
2019-01-29T02:45:35.395Z,2.60
2019-01-29T02:48:03.277Z,2.60
2019-01-29T02:50:31.229Z,2.60
2019-01-29T02:52:59.151Z,2.60
2019-01-29T02:55:27.079Z,2.60
2019-01-29T02:57:54.986Z,2.60
2019-01-29T03:00:23.947Z,2.60
2019-01-29T03:02:51.975Z,2.60
2019-01-29T03:05:20.541Z,2.50
2019-01-29T03:07:48.679Z,2.50
2019-01-29T03:10:17.828Z,2.50
2019-01-29T03:12:45.791Z,2.40
2019-01-29T03:15:15.707Z,2.50
2019-01-29T03:17:43.574Z,2.40
2019-01-29T03:20:11.546Z,2.40
2019-01-29T03:22:39.490Z,2.30
2019-01-29T03:25:08.025Z,2.10
2019-01-29T03:27:35.927Z,2.10
2019-01-29T03:30:04.406Z,2.00
2019-01-29T03:32:32.345Z,2.00
2019-01-29T03:35:02.076Z,2.00
2019-01-29T03:37:29.903Z,1.90
2019-01-29T03:39:57.766Z,1.90
2019-01-29T03:42:25.697Z,2.00
2019-01-29T03:44:53.719Z,1.90
2019-01-29T03:47:21.595Z,1.80
2019-01-29T03:49:49.508Z,1.80
2019-01-29T03:52:17.398Z,1.80
2019-01-29T03:54:45.386Z,1.80
2019-01-29T03:57:13.291Z,1.70
2019-01-29T03:59:41.206Z,1.60
2019-01-29T04:02:09.160Z,1.60
2019-01-29T04:04:37.035Z,1.60
2019-01-29T04:07:04.992Z,1.60
2019-01-29T04:09:32.919Z,1.60
2019-01-29T04:12:00.817Z,1.60
2019-01-29T04:14:28.871Z,1.60
2019-01-29T04:16:56.819Z,1.60
2019-01-29T04:19:26.549Z,1.60
2019-01-29T04:21:54.515Z,1.60
2019-01-29T04:24:22.463Z,1.50
2019-01-29T04:26:50.346Z,1.60
2019-01-29T04:29:18.235Z,1.60
2019-01-29T04:31:46.111Z,1.70
2019-01-29T04:34:14.048Z,1.70
2019-01-29T04:36:42.096Z,1.70
2019-01-29T04:39:10.123Z,1.50
2019-01-29T04:41:38.052Z,1.50
2019-01-29T04:44:06.050Z,1.40
2019-01-29T04:46:34.072Z,1.40
2019-01-29T04:49:02.120Z,1.40
2019-01-29T04:51:30.012Z,1.40
2019-01-29T04:53:58.080Z,1.40
2019-01-29T04:56:26.070Z,1.40
2019-01-29T04:58:54.062Z,1.40
2019-01-29T05:01:22.057Z,1.30
2019-01-29T05:03:50.160Z,1.30
2019-01-29T05:06:18.188Z,1.30
2019-01-29T05:08:46.117Z,1.20
2019-01-29T05:11:13.999Z,1.20
2019-01-29T05:13:41.905Z,1.20
2019-01-29T05:16:09.836Z,1.10
2019-01-29T05:18:37.744Z,1.10
2019-01-29T05:21:05.769Z,1.10
2019-01-29T05:23:33.696Z,1.10
2019-01-29T05:26:01.797Z,1.10
2019-01-29T05:28:30.089Z,1.10
2019-01-29T05:30:58.075Z,1.20
2019-01-29T05:33:26.097Z,1.10
2019-01-29T05:35:53.972Z,1.20
2019-01-29T05:38:21.857Z,1.10
2019-01-29T05:40:49.730Z,1.00
2019-01-29T05:43:17.648Z,1.00
2019-01-29T05:45:45.608Z,0.90
2019-01-29T05:48:13.511Z,0.90
2019-01-29T05:50:41.397Z,0.90
2019-01-29T05:53:09.320Z,0.90
2019-01-29T05:55:37.242Z,0.80
2019-01-29T05:58:05.115Z,0.80
2019-01-29T06:00:35.648Z,0.80
2019-01-29T06:03:03.702Z,0.80
2019-01-29T06:05:31.826Z,0.60
2019-01-29T06:07:59.801Z,0.60
2019-01-29T06:10:27.742Z,0.60
2019-01-29T06:12:55.724Z,0.50
2019-01-29T06:15:23.888Z,0.40
2019-01-29T06:17:51.953Z,0.40
2019-01-29T06:20:20.631Z,0.40
2019-01-29T06:22:48.688Z,0.30
2019-01-29T06:25:16.666Z,0.30
2019-01-29T06:27:44.570Z,0.30
2019-01-29T06:30:13.242Z,0.30
2019-01-29T06:32:41.230Z,0.30
2019-01-29T06:35:10.387Z,0.30
2019-01-29T06:37:38.307Z,0.30
2019-01-29T06:40:06.918Z,0.30
2019-01-29T06:42:34.981Z,0.30
2019-01-29T06:45:02.955Z,0.30
2019-01-29T06:47:30.882Z,0.30
2019-01-29T06:49:58.817Z,0.20
2019-01-29T06:52:26.687Z,0.30
2019-01-29T06:54:54.625Z,0.30
2019-01-29T06:57:22.578Z,0.30
2019-01-29T06:59:50.533Z,0.30
2019-01-29T07:02:18.440Z,0.30
2019-01-29T07:04:46.332Z,0.30
2019-01-29T07:07:14.213Z,0.30
2019-01-29T07:09:42.171Z,0.30
2019-01-29T07:12:10.543Z,0.40
2019-01-29T07:14:39.099Z,0.40
2019-01-29T07:17:18.986Z,0.40
2019-01-29T07:19:49.717Z,0.50
2019-01-29T07:22:17.736Z,0.50
2019-01-29T07:24:45.630Z,0.60
2019-01-29T07:27:13.681Z,0.70
2019-01-29T07:29:41.788Z,0.70
2019-01-29T07:32:09.726Z,0.80
2019-01-29T07:34:37.859Z,0.80
2019-01-29T07:37:05.908Z,0.80
2019-01-29T07:39:33.810Z,0.90
2019-01-29T07:42:01.727Z,0.90
2019-01-29T07:44:29.637Z,0.90
2019-01-29T07:46:57.562Z,1.00
2019-01-29T07:49:25.621Z,1.00
2019-01-29T07:51:53.647Z,1.10
2019-01-29T07:54:21.652Z,1.10
2019-01-29T07:56:49.740Z,1.20
2019-01-29T07:59:17.924Z,1.40
2019-01-29T08:01:45.823Z,1.30
2019-01-29T08:04:13.774Z,1.40
2019-01-29T08:06:41.803Z,1.40
2019-01-29T08:09:10.629Z,1.40
2019-01-29T08:11:38.542Z,1.50
2019-01-29T08:14:06.443Z,1.50
2019-01-29T08:16:34.420Z,1.50
2019-01-29T08:19:02.352Z,1.60
2019-01-29T08:21:30.292Z,1.60
2019-01-29T08:23:58.214Z,1.60
2019-01-29T08:26:26.225Z,1.60
2019-01-29T08:28:54.183Z,1.60
2019-01-29T08:31:22.097Z,1.60
2019-01-29T08:33:50.171Z,1.70
2019-01-29T08:36:19.756Z,1.70
2019-01-29T08:38:47.660Z,1.80
2019-01-29T08:41:15.629Z,1.70
2019-01-29T08:43:43.509Z,1.80
2019-01-29T08:46:11.480Z,1.90
2019-01-29T08:48:39.375Z,1.90
2019-01-29T08:51:07.259Z,1.90
2019-01-29T08:53:35.136Z,1.80
2019-01-29T08:56:03.199Z,1.80
2019-01-29T08:58:31.075Z,1.80
2019-01-29T09:00:58.946Z,1.90
2019-01-29T09:03:26.906Z,1.90
2019-01-29T09:05:54.879Z,2.00
2019-01-29T09:08:22.877Z,1.90
2019-01-29T09:10:50.865Z,2.00
2019-01-29T09:13:18.777Z,1.90
2019-01-29T09:15:46.810Z,2.00
2019-01-29T09:18:15.318Z,2.00
2019-01-29T09:20:43.223Z,2.10
2019-01-29T09:23:11.214Z,2.00
2019-01-29T09:25:39.275Z,2.00
2019-01-29T09:28:07.290Z,2.00
2019-01-29T09:30:35.240Z,2.00
2019-01-29T09:33:03.199Z,2.10
2019-01-29T09:35:31.337Z,2.20
2019-01-29T09:37:59.362Z,2.30
2019-01-29T09:40:27.237Z,2.30
2019-01-29T09:42:55.209Z,2.30
2019-01-29T09:45:23.249Z,2.50
2019-01-29T09:47:51.256Z,2.50
2019-01-29T09:50:20.191Z,2.60
2019-01-29T09:52:48.180Z,2.60
2019-01-29T09:55:16.744Z,2.60
2019-01-29T09:57:44.814Z,2.60
2019-01-29T10:00:17.602Z,2.50
2019-01-29T10:02:45.562Z,2.50
2019-01-29T10:05:13.530Z,2.50
2019-01-29T10:07:41.507Z,2.40
2019-01-29T10:10:09.764Z,2.40
2019-01-29T10:12:37.701Z,2.40
2019-01-29T10:15:06.144Z,2.40
2019-01-29T10:17:34.274Z,2.50
2019-01-29T10:20:03.075Z,2.60
2019-01-29T10:22:31.224Z,2.60
2019-01-29T10:24:59.110Z,2.60
2019-01-29T10:27:26.993Z,2.60
2019-01-29T10:29:54.992Z,2.60
2019-01-29T10:32:22.855Z,2.60
2019-01-29T10:34:50.813Z,2.50
2019-01-29T10:37:18.823Z,2.50
2019-01-29T10:39:46.778Z,2.50
2019-01-29T10:42:14.677Z,2.60
2019-01-29T10:44:42.670Z,2.60
2019-01-29T10:47:11.469Z,2.70
2019-01-29T10:49:39.779Z,2.70
2019-01-29T10:52:07.770Z,2.70
2019-01-29T10:54:35.656Z,2.70
2019-01-29T10:57:03.916Z,2.80
2019-01-29T10:59:31.823Z,2.70
2019-01-29T11:01:59.778Z,2.70
2019-01-29T11:04:27.651Z,2.70
2019-01-29T11:06:58.468Z,2.80
2019-01-29T11:09:26.871Z,2.80
2019-01-29T11:11:54.889Z,2.80
2019-01-29T11:14:22.868Z,3.00
2019-01-29T11:16:51.040Z,3.00
2019-01-29T11:19:19.065Z,2.90
2019-01-29T11:21:47.107Z,2.90
2019-01-29T11:24:15.061Z,2.80
2019-01-29T11:26:43.059Z,2.80
2019-01-29T11:29:11.103Z,2.80
2019-01-29T11:31:39.383Z,2.80
2019-01-29T11:34:07.348Z,2.70
2019-01-29T11:36:35.230Z,2.80
2019-01-29T11:39:05.261Z,2.70
2019-01-29T11:41:33.171Z,2.70
2019-01-29T11:44:01.053Z,2.80
2019-01-29T11:46:30.767Z,2.90
2019-01-29T11:48:58.663Z,2.90
2019-01-29T11:51:26.635Z,3.00
2019-01-29T11:53:55.233Z,3.10
2019-01-29T11:56:23.271Z,3.20
2019-01-29T11:58:54.213Z,3.20
2019-01-29T12:01:24.798Z,3.10
2019-01-29T12:03:52.775Z,3.10
2019-01-29T12:06:20.761Z,3.10
2019-01-29T12:08:48.698Z,3.10
2019-01-29T12:11:16.701Z,3.10
2019-01-29T12:13:44.785Z,3.10
2019-01-29T12:16:16.110Z,3.00
2019-01-29T12:18:44.221Z,3.00
2019-01-29T12:21:12.202Z,3.20
2019-01-29T12:23:40.108Z,3.30
2019-01-29T12:26:13.057Z,3.40
2019-01-29T12:28:37.754Z,3.40
2019-01-29T12:31:05.744Z,3.30
2019-01-29T12:33:33.627Z,3.20
2019-01-29T12:36:02.094Z,3.40
2019-01-29T12:38:30.226Z,3.40
2019-01-29T12:40:58.366Z,3.50
2019-01-29T12:43:26.351Z,3.80
2019-01-29T12:45:54.279Z,4.10
2019-01-29T12:48:22.347Z,4.40
2019-01-29T12:50:57.032Z,4.40
2019-01-29T12:53:29.458Z,4.30
2019-01-29T12:55:57.365Z,4.10
2019-01-29T12:58:25.343Z,4.20
2019-01-29T13:00:55.462Z,4.20
2019-01-29T13:03:23.466Z,4.30
2019-01-29T13:05:51.384Z,4.30
2019-01-29T13:08:19.520Z,4.50
2019-01-29T13:10:47.553Z,4.60
2019-01-29T13:13:15.686Z,4.70
2019-01-29T13:15:43.724Z,4.70
2019-01-29T13:18:12.163Z,4.50
2019-01-29T13:20:40.409Z,4.60
2019-01-29T13:23:08.422Z,4.70
2019-01-29T13:25:36.744Z,4.70
2019-01-29T13:28:05.164Z,4.90
2019-01-29T13:30:33.862Z,5.10
2019-01-29T13:33:02.072Z,5.20
2019-01-29T13:35:31.226Z,5.20
2019-01-29T13:37:59.320Z,5.10
2019-01-29T13:40:27.313Z,4.80
2019-01-29T13:42:58.324Z,4.70
2019-01-29T13:45:26.361Z,4.50
2019-01-29T13:47:54.271Z,4.40
2019-01-29T13:50:27.347Z,4.30
2019-01-29T13:52:55.265Z,4.10
2019-01-29T13:55:23.246Z,4.10
2019-01-29T13:57:51.154Z,4.10
2019-01-29T14:00:26.667Z,3.90
2019-01-29T14:02:54.616Z,3.90
2019-01-29T14:05:22.647Z,3.80
2019-01-29T14:07:50.613Z,3.80
2019-01-29T14:10:18.572Z,3.80
2019-01-29T14:12:46.758Z,4.00
2019-01-29T14:15:19.902Z,3.90
2019-01-29T14:17:48.046Z,3.90
2019-01-29T14:20:16.360Z,3.90
2019-01-29T14:22:44.335Z,4.00
2019-01-29T14:25:12.477Z,3.90
2019-01-29T14:27:40.508Z,4.00
2019-01-29T14:30:10.728Z,4.00
2019-01-29T14:32:38.711Z,4.00
2019-01-29T14:35:06.715Z,4.00
2019-01-29T14:37:51.221Z,3.90
2019-01-29T14:40:20.020Z,3.90
2019-01-29T14:42:48.717Z,3.80
2019-01-29T14:45:18.907Z,3.80
2019-01-29T14:47:46.880Z,3.90
2019-01-29T14:50:14.921Z,3.90
2019-01-29T14:52:42.903Z,4.00
2019-01-29T14:55:10.986Z,4.00
2019-01-29T14:57:40.971Z,3.90
2019-01-29T15:00:11.932Z,4.00
2019-01-29T15:02:39.922Z,3.90
2019-01-29T15:05:07.918Z,3.90
2019-01-29T15:07:35.968Z,3.90
2019-01-29T15:10:04.916Z,3.90
2019-01-29T15:12:32.990Z,3.90
2019-01-29T15:15:00.957Z,3.90
2019-01-29T15:17:42.322Z,3.90
2019-01-29T15:20:10.736Z,3.90
2019-01-29T15:22:38.775Z,3.90
2019-01-29T15:25:07.896Z,3.90
2019-01-29T15:27:35.928Z,3.80
2019-01-29T15:30:05.044Z,3.90
2019-01-29T15:32:32.983Z,3.90
2019-01-29T15:35:00.887Z,3.80
2019-01-29T15:37:28.988Z,3.70
2019-01-29T15:39:57.049Z,3.80
2019-01-29T15:42:24.990Z,3.80
2019-01-29T15:44:52.995Z,3.90
2019-01-29T15:47:20.986Z,3.90
2019-01-29T15:49:48.963Z,3.90
2019-01-29T15:52:16.922Z,3.90
2019-01-29T15:54:44.947Z,4.00
2019-01-29T15:57:14.251Z,4.10
2019-01-29T15:59:43.232Z,4.10
2019-01-29T16:02:11.432Z,4.10
2019-01-29T16:04:39.519Z,4.10
2019-01-29T16:07:07.514Z,4.00
2019-01-29T16:09:35.435Z,4.10
2019-01-29T16:12:03.502Z,4.10
2019-01-29T16:14:31.440Z,4.20
2019-01-29T16:16:59.512Z,4.10
2019-01-29T16:19:29.645Z,4.20
2019-01-29T16:21:57.569Z,4.10
2019-01-29T16:24:25.487Z,4.00
2019-01-29T16:26:53.391Z,4.10
2019-01-29T16:29:21.332Z,4.10
2019-01-29T16:31:51.207Z,4.10
2019-01-29T16:34:19.356Z,4.20
2019-01-29T16:36:47.286Z,4.10
2019-01-29T16:39:15.175Z,4.10
2019-01-29T16:41:45.504Z,4.10
2019-01-29T16:44:13.435Z,4.10
2019-01-29T16:46:41.364Z,4.10
2019-01-29T16:49:09.323Z,4.10
2019-01-29T16:51:42.296Z,4.20
2019-01-29T16:54:07.083Z,4.20
2019-01-29T16:56:35.283Z,4.30
2019-01-29T16:59:03.545Z,4.30
2019-01-29T17:01:31.428Z,4.20
2019-01-29T17:03:59.399Z,4.20
2019-01-29T17:06:27.366Z,4.20
2019-01-29T17:08:55.341Z,4.30
2019-01-29T17:11:23.258Z,4.20
2019-01-29T17:13:51.169Z,4.30
2019-01-29T17:16:19.102Z,4.20
2019-01-29T17:18:47.086Z,4.30
2019-01-29T17:21:15.013Z,4.30
2019-01-29T17:23:42.932Z,4.30
2019-01-29T17:26:10.888Z,4.30
2019-01-29T17:28:38.924Z,4.30
2019-01-29T17:31:06.797Z,4.30
2019-01-29T17:33:35.125Z,4.40
2019-01-29T17:36:03.031Z,4.40
2019-01-29T17:38:31.022Z,4.40
2019-01-29T17:40:58.965Z,4.40
2019-01-29T17:43:26.944Z,4.40
2019-01-29T17:45:54.967Z,4.30
2019-01-29T17:48:22.883Z,4.20
2019-01-29T17:50:50.834Z,4.20
2019-01-29T17:53:18.843Z,4.20
2019-01-29T17:55:47.065Z,4.30
2019-01-29T17:58:15.149Z,4.30
2019-01-29T18:00:47.575Z,4.30
2019-01-29T18:03:15.730Z,4.30
2019-01-29T18:05:43.863Z,4.30
2019-01-29T18:08:11.821Z,4.30
2019-01-29T18:10:39.800Z,4.30
2019-01-29T18:13:07.824Z,4.30
2019-01-29T18:15:36.167Z,4.30
2019-01-29T18:18:04.244Z,4.30
2019-01-29T18:20:32.229Z,4.40
2019-01-29T18:23:00.256Z,4.30
2019-01-29T18:25:28.507Z,4.30
2019-01-29T18:28:01.205Z,4.40
2019-01-29T18:30:27.140Z,4.40
2019-01-29T18:32:55.070Z,4.40
2019-01-29T18:35:23.102Z,4.30
2019-01-29T18:37:51.133Z,4.20
2019-01-29T18:40:20.582Z,4.10
2019-01-29T18:42:48.666Z,4.10
2019-01-29T18:45:16.609Z,4.20
2019-01-29T18:47:44.488Z,4.30
2019-01-29T18:50:13.211Z,4.30
2019-01-29T18:52:41.257Z,4.30
2019-01-29T18:55:09.565Z,4.30
2019-01-29T18:57:37.562Z,4.30
2019-01-29T19:00:06.811Z,4.30
2019-01-29T19:02:34.779Z,4.30
2019-01-29T19:05:04.395Z,4.30
2019-01-29T19:07:32.411Z,4.30
2019-01-29T19:10:00.412Z,4.20
2019-01-29T19:12:28.337Z,4.30
2019-01-29T19:14:56.597Z,4.10
2019-01-29T19:17:24.518Z,4.10
2019-01-29T19:19:52.517Z,4.20
2019-01-29T19:22:22.735Z,4.20
2019-01-29T19:24:51.752Z,4.20
2019-01-29T19:27:19.782Z,4.10
2019-01-29T19:29:47.671Z,4.20
2019-01-29T19:32:15.583Z,4.10
2019-01-29T19:34:43.730Z,4.10
2019-01-29T19:37:11.773Z,4.10
2019-01-29T19:39:39.841Z,4.20
2019-01-29T19:42:07.851Z,4.10
2019-01-29T19:44:35.767Z,4.10
2019-01-29T19:47:03.777Z,4.00
2019-01-29T19:49:31.838Z,4.10
2019-01-29T19:51:59.997Z,4.10
2019-01-29T19:54:28.079Z,4.00
2019-01-29T19:56:56.012Z,4.10
2019-01-29T19:59:23.999Z,4.10
2019-01-29T20:01:51.982Z,4.10
2019-01-29T20:04:22.607Z,4.10
2019-01-29T20:06:50.672Z,4.10
2019-01-29T20:09:18.669Z,4.10
2019-01-29T20:11:46.579Z,4.00
2019-01-29T20:14:14.499Z,4.00
2019-01-29T20:16:42.489Z,4.00
2019-01-29T20:19:11.276Z,4.00
2019-01-29T20:21:39.630Z,4.00
2019-01-29T20:24:08.405Z,4.00
2019-01-29T20:26:38.369Z,4.00
2019-01-29T20:29:06.097Z,4.00
2019-01-29T20:31:36.736Z,4.00
2019-01-29T20:34:05.072Z,4.00
2019-01-29T20:36:33.550Z,4.00
2019-01-29T20:39:01.828Z,3.90
2019-01-29T20:41:29.954Z,4.00
2019-01-29T20:43:57.968Z,4.00
2019-01-29T20:46:26.090Z,4.00
2019-01-29T20:48:55.977Z,4.00
2019-01-29T20:51:23.980Z,4.00
2019-01-29T20:53:51.982Z,4.00
2019-01-29T20:56:20.057Z,3.90
2019-01-29T20:58:52.834Z,3.80
2019-01-29T21:01:17.772Z,3.80
2019-01-29T21:03:46.778Z,3.70
2019-01-29T21:06:16.828Z,3.60
2019-01-29T21:08:46.017Z,3.60
2019-01-29T21:11:14.235Z,3.50
2019-01-29T21:13:42.334Z,3.50
2019-01-29T21:16:10.440Z,3.40
2019-01-29T21:18:38.400Z,3.50
2019-01-29T21:21:06.342Z,3.50
2019-01-29T21:23:34.313Z,3.30
2019-01-29T21:26:02.447Z,3.30
2019-01-29T21:28:30.469Z,3.40
2019-01-29T21:30:58.413Z,3.20
2019-01-29T21:33:26.326Z,3.10
2019-01-29T21:35:54.884Z,3.00
2019-01-29T21:38:22.788Z,3.10
2019-01-29T21:40:50.678Z,3.10
2019-01-29T21:43:18.685Z,3.10
2019-01-29T21:45:46.575Z,3.00
2019-01-29T21:48:14.640Z,2.90
2019-01-29T21:50:42.589Z,2.90
2019-01-29T21:53:10.556Z,2.90
2019-01-29T21:55:38.578Z,2.90
2019-01-29T21:58:06.931Z,2.80
2019-01-29T22:00:36.274Z,2.80
2019-01-29T22:03:04.978Z,2.80
2019-01-29T22:05:33.152Z,2.60
2019-01-29T22:08:01.128Z,2.50
2019-01-29T22:10:29.053Z,2.40
2019-01-29T22:12:57.364Z,2.40
2019-01-29T22:15:25.385Z,2.40
2019-01-29T22:17:53.503Z,2.50
2019-01-29T22:20:21.562Z,2.40
2019-01-29T22:22:49.618Z,2.40
2019-01-29T22:25:17.989Z,2.40
2019-01-29T22:27:46.094Z,2.40
2019-01-29T22:30:15.595Z,2.40
2019-01-29T22:32:43.686Z,2.40
2019-01-29T22:35:11.619Z,2.40
2019-01-29T22:37:39.595Z,2.40
2019-01-29T22:40:23.619Z,2.40
2019-01-29T22:42:51.812Z,2.30
2019-01-29T22:45:19.953Z,2.30
2019-01-29T22:47:47.994Z,2.20
2019-01-29T22:50:17.384Z,2.10
2019-01-29T22:52:45.428Z,2.10
2019-01-29T22:55:13.515Z,2.10
2019-01-29T22:57:41.629Z,2.10
2019-01-29T23:00:16.302Z,2.00
2019-01-29T23:02:44.181Z,2.00
2019-01-29T23:05:12.211Z,1.90
2019-01-29T23:07:40.172Z,1.80
2019-01-29T23:10:11.390Z,1.70
2019-01-29T23:12:39.665Z,1.60
2019-01-29T23:15:09.065Z,1.70
2019-01-29T23:17:37.013Z,1.70
2019-01-29T23:20:06.196Z,1.70
2019-01-29T23:22:34.119Z,1.80
2019-01-29T23:25:02.143Z,1.80
2019-01-29T23:27:30.108Z,1.90
2019-01-29T23:29:58.014Z,1.90
2019-01-29T23:32:25.984Z,1.80
2019-01-29T23:34:53.850Z,1.70
2019-01-29T23:37:21.792Z,1.70
2019-01-29T23:39:49.814Z,1.60
2019-01-29T23:42:17.822Z,1.60
2019-01-29T23:44:45.774Z,1.50
2019-01-29T23:47:13.724Z,1.40
2019-01-29T23:49:41.819Z,1.40
2019-01-29T23:52:09.790Z,1.40
2019-01-29T23:54:38.030Z,1.30
2019-01-29T23:57:21.345Z,1.30
